Time;durP1;ratioP1;P1;durP2;ratioP2;P2;SDS_P1;SDS_P2;PMS_P1;PMS_P2;Temp;Humidity;BMP_temperature;BMP_pressure;BME280_temperature;BME280_humidity;BME280_pressure;Samples;Min_cycle;Max_cycle;Signal;HPM_P1;HPM_P2
2021/08/02 00:01:53;;;;;;;5.70;3.70;;;;;;;16.94;81.22;99359.52;91649;1242;70319;-61
2021/08/02 00:04:05;;;;;;;6.20;3.80;;;;;;;16.88;81.10;99362.44;91603;1242;86700;-60
2021/08/02 00:06:23;;;;;;;4.40;3.60;;;;;;;16.87;81.34;99371.69;91638;1242;74874;-60
2021/08/02 00:08:31;;;;;;;4.30;3.70;;;;;;;16.81;81.11;99370.80;91609;1241;82963;-60
2021/08/02 00:10:39;;;;;;;4.90;3.40;;;;;;;16.79;81.26;99362.06;91613;1242;66766;-62
2021/08/02 00:12:56;;;;;;;4.50;3.50;;;;;;;16.78;81.15;99370.52;91628;1242;69545;-66
2021/08/02 00:15:05;;;;;;;3.80;3.40;;;;;;;16.77;81.21;99369.69;91631;1242;86756;-61
2021/08/02 00:17:13;;;;;;;5.30;3.50;;;;;;;16.80;81.00;99369.17;91656;1242;74756;-54
2021/08/02 00:19:21;;;;;;;5.40;3.50;;;;;;;16.78;81.26;99370.52;91634;1242;80788;-57
2021/08/02 00:21:29;;;;;;;5.80;3.70;;;;;;;16.84;80.99;99374.92;91634;1246;67157;-56
2021/08/02 00:23:41;;;;;;;5.80;3.30;;;;;;;16.88;81.03;99373.34;91653;1241;69598;-59
2021/08/02 00:25:52;;;;;;;4.30;3.50;;;;;;;16.87;81.08;99377.98;91637;1241;87058;-60
2021/08/02 00:28:01;;;;;;;7.70;3.50;;;;;;;16.78;81.07;99371.34;91655;1242;74134;-60
2021/08/02 00:30:12;;;;;;;5.20;3.50;;;;;;;16.80;80.93;99373.80;91633;1242;80299;-60
2021/08/02 00:32:20;;;;;;;4.20;3.70;;;;;;;16.83;80.94;99381.48;91642;1240;67992;-56
2021/08/02 00:34:28;;;;;;;3.40;2.90;;;;;;;16.79;81.20;99377.59;91617;1242;68976;-55
2021/08/02 00:36:44;;;;;;;4.00;3.60;;;;;;;16.76;81.02;99376.20;91604;1242;86968;-58
2021/08/02 00:39:02;;;;;;;4.10;3.40;;;;;;;16.72;81.11;99379.70;91533;1242;74730;-61
2021/08/02 00:41:33;;;;;;;5.70;3.80;;;;;;;16.72;81.25;99382.44;91606;1241;81648;-60
2021/08/02 00:44:18;;;;;;;4.40;3.80;;;;;;;16.78;81.15;99381.42;91615;1242;67643;-60
2021/08/02 00:46:34;;;;;;;6.10;3.70;;;;;;;16.78;81.18;99387.71;91588;1242;69424;-61
2021/08/02 00:48:50;;;;;;;3.90;3.30;;;;;;;16.80;81.18;99382.81;91592;1242;86168;-61
2021/08/02 00:51:05;;;;;;;6.10;3.70;;;;;;;16.85;81.24;99388.33;91631;1241;74138;-60
2021/08/02 00:53:16;;;;;;;4.20;3.30;;;;;;;16.88;81.18;99386.99;91604;1242;81395;-60
2021/08/02 00:55:27;;;;;;;5.30;4.10;;;;;;;16.93;80.95;99392.50;91652;1241;68134;-60
2021/08/02 00:57:38;;;;;;;3.90;3.30;;;;;;;16.82;81.13;99390.73;91614;1241;67457;-60
2021/08/02 00:59:48;;;;;;;5.30;3.60;;;;;;;16.84;81.19;99381.21;91626;1242;85648;-62
2021/08/02 01:01:57;;;;;;;6.60;3.30;;;;;;;16.83;81.12;99385.03;91600;1242;73782;-61
2021/08/02 01:04:08;;;;;;;4.60;3.30;;;;;;;16.80;81.07;99385.55;91631;1242;81033;-61
2021/08/02 01:06:18;;;;;;;5.10;3.60;;;;;;;16.69;80.96;99377.48;91586;1242;65551;-60
2021/08/02 01:08:28;;;;;;;5.60;3.10;;;;;;;16.65;80.88;99382.61;91618;1242;68841;-56
2021/08/02 01:10:39;;;;;;;3.90;2.90;;;;;;;16.63;81.11;99382.05;91622;1242;86589;-54
2021/08/02 01:12:50;;;;;;;5.00;3.10;;;;;;;16.65;81.05;99387.23;91597;1242;74167;-55
2021/08/02 01:14:58;;;;;;;6.00;3.70;;;;;;;16.69;80.93;99394.67;91579;1242;81735;-53
2021/08/02 01:17:10;;;;;;;5.00;3.40;;;;;;;16.69;81.03;99382.94;91552;1242;66929;-60
2021/08/02 01:19:20;;;;;;;6.10;3.50;;;;;;;16.69;81.04;99389.22;91586;1242;68028;-59
2021/08/02 01:21:30;;;;;;;5.50;3.10;;;;;;;16.69;81.31;99382.94;91608;1241;85824;-59
2021/08/02 01:23:40;;;;;;;4.90;3.00;;;;;;;16.69;81.22;99382.94;91623;1242;76181;-61
2021/08/02 01:26:42;;;;;;;4.50;3.50;;;;;;;16.65;81.09;99385.34;91509;1242;81516;-61
2021/08/02 01:29:43;;;;;;;4.10;3.50;;;;;;;16.71;81.19;99387.05;91586;1242;66499;-60
2021/08/02 01:31:50;;;;;;;6.40;3.60;;;;;;;16.66;81.19;99387.00;91600;1242;69047;-54
2021/08/02 01:33:58;;;;;;;5.80;4.00;;;;;;;16.65;81.27;99381.78;91581;1242;86635;-55
2021/08/02 01:36:08;;;;;;;5.80;3.90;;;;;;;16.63;81.24;99381.22;91614;1241;74125;-56
2021/08/02 01:38:19;;;;;;;5.10;3.60;;;;;;;16.65;81.16;99377.16;91567;1241;81650;-59
2021/08/02 01:40:27;;;;;;;4.90;3.90;;;;;;;16.63;81.31;99375.77;91579;1243;66825;-61
2021/08/02 01:42:35;;;;;;;5.30;3.90;;;;;;;16.59;81.28;99372.70;91568;1244;69028;-56
2021/08/02 01:44:42;;;;;;;4.20;3.80;;;;;;;16.63;81.31;99379.32;91533;1246;86594;-55
2021/08/02 01:46:59;;;;;;;4.30;3.70;;;;;;;16.63;81.32;99370.31;91604;1242;75048;-61
2021/08/02 01:49:16;;;;;;;4.40;3.80;;;;;;;16.62;81.27;99372.20;91561;1241;81764;-61
2021/08/02 01:51:31;;;;;;;6.90;4.80;;;;;;;16.65;81.47;99371.70;91581;1242;66028;-61
2021/08/02 01:53:45;;;;;;;4.90;4.00;;;;;;;16.64;81.58;99372.80;91582;1242;68417;-57
2021/08/02 01:56:03;;;;;;;6.30;4.50;;;;;;;16.59;81.36;99369.19;91608;1242;86002;-55
2021/08/02 01:58:13;;;;;;;4.40;3.90;;;;;;;16.58;81.44;99367.52;91609;1241;74371;-56
2021/08/02 02:00:22;;;;;;;4.40;3.80;;;;;;;16.56;81.54;99369.69;91574;1241;80823;-58
2021/08/02 02:02:32;;;;;;;6.60;4.50;;;;;;;16.56;81.69;99377.86;91591;1246;65527;-59
2021/08/02 02:04:49;;;;;;;5.00;4.50;;;;;;;16.61;81.75;99383.38;91585;1242;69961;-60
2021/08/02 02:07:01;;;;;;;5.90;4.40;;;;;;;16.59;81.74;99380.89;91582;1241;85366;-56
2021/08/02 02:09:13;;;;;;;5.20;4.10;;;;;;;16.63;81.73;99382.05;91552;1242;75202;-56
2021/08/02 02:11:21;;;;;;;5.70;4.20;;;;;;;16.65;81.82;99382.61;91545;1243;80749;-56
2021/08/02 02:13:34;;;;;;;6.70;4.40;;;;;;;16.65;81.65;99377.16;91607;1241;66778;-62
2021/08/02 02:15:43;;;;;;;6.80;4.80;;;;;;;16.69;81.66;99382.94;91588;1246;68551;-59
2021/08/02 02:17:51;;;;;;;6.10;4.00;;;;;;;16.66;81.74;99383.44;91581;1244;86321;-56
2021/08/02 02:20:01;;;;;;;5.90;4.40;;;;;;;16.65;81.81;99374.43;91576;1241;75130;-56
2021/08/02 02:22:11;;;;;;;5.30;4.50;;;;;;;16.62;81.81;99380.38;91563;1242;81248;-56
2021/08/02 02:24:19;;;;;;;5.50;4.10;;;;;;;16.68;81.70;99381.27;91534;1243;65900;-56
2021/08/02 02:26:32;;;;;;;4.60;4.00;;;;;;;16.64;81.53;99380.98;91581;1242;68850;-58
2021/08/02 02:28:41;;;;;;;4.90;4.40;;;;;;;16.59;81.83;99378.16;91553;1242;86818;-59
2021/08/02 02:30:51;;;;;;;4.60;4.10;;;;;;;16.55;81.71;99374.31;91547;1242;74209;-59
2021/08/02 02:33:00;;;;;;;4.40;4.00;;;;;;;16.58;81.75;99381.98;91528;1241;81507;-57
2021/08/02 02:35:10;;;;;;;5.20;3.90;;;;;;;16.60;81.71;99379.83;91547;1242;65904;-56
2021/08/02 02:37:24;;;;;;;8.80;5.00;;;;;;;16.59;81.75;99380.89;91575;1242;67907;-59
2021/08/02 02:39:32;;;;;;;5.80;4.30;;;;;;;16.54;81.73;99386.28;91563;1243;86360;-61
2021/08/02 02:41:42;;;;;;;6.30;4.20;;;;;;;16.49;81.86;99394.37;91546;1242;74737;-58
2021/08/02 02:43:51;;;;;;;4.40;4.00;;;;;;;16.52;81.85;99396.59;91561;1244;81084;-57
2021/08/02 02:45:59;;;;;;;4.40;3.90;;;;;;;16.51;81.70;99398.48;91521;1242;67912;-58
2021/08/02 02:48:09;;;;;;;5.80;4.10;;;;;;;16.47;81.86;99397.36;91578;1242;68741;-57
2021/08/02 02:50:17;;;;;;;6.20;4.30;;;;;;;16.52;81.87;99404.77;91563;1244;85615;-59
2021/08/02 02:52:26;;;;;;;5.00;4.30;;;;;;;16.50;81.73;99402.31;91537;1242;74820;-60
2021/08/02 02:54:34;;;;;;;6.00;3.80;;;;;;;16.50;81.71;99401.48;91551;1242;79953;-57
2021/08/02 02:56:42;;;;;;;4.00;3.60;;;;;;;16.51;81.83;99405.84;91609;1241;66061;-61
2021/08/02 02:58:50;;;;;;;4.70;3.90;;;;;;;16.53;81.87;99401.01;91549;1246;68378;-61
2021/08/02 03:00:59;;;;;;;4.70;3.80;;;;;;;16.52;81.74;99408.33;91596;1242;86497;-60
2021/08/02 03:03:09;;;;;;;3.90;3.40;;;;;;;16.48;81.65;99404.44;91582;1242;73941;-59
2021/08/02 03:05:19;;;;;;;5.50;3.40;;;;;;;16.45;81.70;99418.57;91567;1242;80752;-60
2021/08/02 03:07:30;;;;;;;4.70;3.80;;;;;;;16.48;81.63;99398.98;91577;1242;65916;-59
2021/08/02 03:09:41;;;;;;;4.90;4.00;;;;;;;16.50;81.55;99398.75;91559;1242;69630;-61
2021/08/02 03:11:49;;;;;;;4.80;3.90;;;;;;;16.38;81.65;99396.13;91587;1242;85916;-62
2021/08/02 03:14:00;;;;;;;6.40;4.00;;;;;;;16.39;81.80;99405.14;91545;1243;74909;-60
2021/08/02 03:16:08;;;;;;;4.90;3.90;;;;;;;16.39;81.76;99418.77;91574;1242;82031;-61
2021/08/02 03:18:16;;;;;;;4.90;4.00;;;;;;;16.40;81.72;99418.50;91563;1242;67115;-59
2021/08/02 03:20:24;;;;;;;5.10;3.50;;;;;;;16.42;81.61;99421.00;91597;1240;68510;-59
2021/08/02 03:22:39;;;;;;;5.50;4.10;;;;;;;16.45;81.58;99423.22;91601;1243;86602;-61
2021/08/02 03:24:57;;;;;;;4.80;3.80;;;;;;;16.40;81.69;99415.78;91579;1241;74542;-62
2021/08/02 03:27:18;;;;;;;6.30;3.70;;;;;;;16.38;81.68;99419.83;91532;1241;82512;-59
2021/08/02 03:29:31;;;;;;;6.40;3.90;;;;;;;16.39;81.64;99418.77;91551;1242;69317;-60
2021/08/02 03:31:46;;;;;;;9.40;4.20;;;;;;;16.33;81.62;99422.48;91595;1242;70006;-60
2021/08/02 03:33:57;;;;;;;6.00;4.10;;;;;;;16.33;81.75;99426.05;91590;1242;86658;-60
2021/08/02 03:36:09;;;;;;;6.70;4.20;;;;;;;16.28;81.84;99436.05;91577;1245;74611;-58
2021/08/02 03:38:19;;;;;;;5.20;3.40;;;;;;;16.29;81.80;99438.52;91568;1245;80210;-61
2021/08/02 03:40:28;;;;;;;6.70;3.90;;;;;;;16.29;81.71;99440.41;91589;1242;68022;-63
2021/08/02 03:42:39;;;;;;;5.30;3.80;;;;;;;16.30;81.78;99442.06;91569;1240;68015;-62
2021/08/02 03:44:48;;;;;;;5.80;3.90;;;;;;;16.30;81.82;99447.52;91621;1241;86545;-62
2021/08/02 03:46:57;;;;;;;4.20;3.70;;;;;;;16.31;81.73;99446.45;91587;1242;74861;-59
2021/08/02 03:49:05;;;;;;;4.00;3.60;;;;;;;16.32;81.83;99448.09;91583;1242;82033;-58
2021/08/02 03:51:13;;;;;;;5.70;3.80;;;;;;;16.31;81.79;99444.56;91615;1241;67296;-58
2021/08/02 03:53:21;;;;;;;6.00;4.00;;;;;;;16.38;81.83;99441.64;91584;1242;68967;-58
2021/08/02 03:55:32;;;;;;;5.00;3.90;;;;;;;16.44;81.80;99440.64;91599;1242;86355;-58
2021/08/02 03:57:39;;;;;;;4.10;3.70;;;;;;;16.44;81.76;99438.75;91569;1242;75902;-60
2021/08/02 03:59:50;;;;;;;5.60;3.80;;;;;;;16.45;81.66;99442.31;91598;1242;81536;-62
2021/08/02 04:01:58;;;;;;;5.80;3.50;;;;;;;16.49;81.57;99440.71;91584;1242;68010;-59
2021/08/02 04:04:07;;;;;;;6.60;4.30;;;;;;;16.45;81.51;99437.66;91539;1242;68007;-59
2021/08/02 04:06:17;;;;;;;4.10;3.70;;;;;;;16.46;81.61;99449.39;91625;1242;86431;-59
2021/08/02 04:08:24;;;;;;;4.70;4.00;;;;;;;16.48;81.60;99447.27;91604;1242;74425;-58
2021/08/02 04:10:35;;;;;;;5.10;3.90;;;;;;;16.46;81.68;99449.39;91601;1241;80647;-59
2021/08/02 04:12:43;;;;;;;4.40;3.80;;;;;;;16.41;81.64;99447.42;91598;1242;69371;-59
2021/08/02 04:14:50;;;;;;;5.90;4.10;;;;;;;16.42;81.56;99451.81;91613;1242;69438;-61
2021/08/02 04:17:01;;;;;;;6.20;5.20;;;;;;;16.45;81.59;99456.73;91566;1242;86946;-62
2021/08/02 04:19:09;;;;;;;6.10;4.40;;;;;;;16.46;81.89;99458.40;91622;1242;74528;-62
2021/08/02 04:21:16;;;;;;;8.50;5.00;;;;;;;16.47;81.63;99462.79;91608;1242;80009;-61
2021/08/02 04:23:24;;;;;;;6.10;4.60;;;;;;;16.49;81.78;99470.70;91605;1242;67303;-60
2021/08/02 04:25:32;;;;;;;7.30;4.40;;;;;;;16.48;81.89;99469.08;91602;1242;69241;-60
2021/08/02 04:27:39;;;;;;;6.60;4.20;;;;;;;16.48;81.72;99472.59;91582;1242;86395;-62
2021/08/02 04:29:47;;;;;;;5.80;4.70;;;;;;;16.49;81.94;99478.88;91639;1242;74610;-61
2021/08/02 04:31:54;;;;;;;7.60;4.70;;;;;;;16.50;81.89;99473.20;91513;1242;80831;-60
2021/08/02 04:34:02;;;;;;;7.10;5.30;;;;;;;16.54;82.06;99484.44;91596;1242;67588;-57
2021/08/02 04:36:10;;;;;;;5.90;5.10;;;;;;;16.58;81.90;99480.15;91624;1241;69578;-58
2021/08/02 04:38:18;;;;;;;7.10;5.80;;;;;;;16.64;82.32;99483.78;91592;1240;86558;-60
2021/08/02 04:40:26;;;;;;;6.70;6.00;;;;;;;16.70;82.20;99485.51;91612;1242;75049;-60
2021/08/02 04:42:37;;;;;;;7.80;6.20;;;;;;;16.79;82.30;99492.98;91613;1242;81333;-60
2021/08/02 04:44:44;;;;;;;9.40;7.30;;;;;;;16.83;82.48;99496.88;91599;1241;68030;-60
2021/08/02 04:46:54;;;;;;;8.40;7.50;;;;;;;16.86;82.33;99498.28;91608;1242;68915;-62
2021/08/02 04:49:01;;;;;;;8.00;7.20;;;;;;;16.97;82.09;99510.98;91539;1242;86562;-61
2021/08/02 04:51:16;;;;;;;9.50;8.60;;;;;;;17.00;82.31;99503.09;91642;1242;76290;-61
2021/08/02 04:53:23;;;;;;;11.20;10.10;;;;;;;17.05;82.07;99500.45;91608;1242;82076;-63
2021/08/02 04:55:31;;;;;;;11.90;10.70;;;;;;;17.08;82.02;99502.66;91601;1242;68866;-61
2021/08/02 04:57:38;;;;;;;13.20;11.80;;;;;;;17.10;82.03;99507.88;91608;1242;67884;-61
2021/08/02 04:59:46;;;;;;;14.00;12.50;;;;;;;17.13;81.96;99501.91;91586;1242;86971;-62
2021/08/02 05:01:53;;;;;;;17.40;14.60;;;;;;;17.20;82.09;99507.16;91611;1241;73896;-60
2021/08/02 05:04:01;;;;;;;17.60;15.80;;;;;;;17.20;82.01;99507.99;91588;1242;81292;-61
2021/08/02 05:06:12;;;;;;;19.90;16.40;;;;;;;17.23;82.12;99512.12;91578;1245;69128;-60
2021/08/02 05:08:19;;;;;;;17.70;15.60;;;;;;;17.24;82.13;99505.59;91553;1242;68329;-61
2021/08/02 05:10:32;;;;;;;18.60;16.70;;;;;;;17.32;81.96;99508.70;91519;1242;86211;-62
2021/08/02 05:12:40;;;;;;;18.20;16.40;;;;;;;17.36;81.88;99509.03;91612;1242;75504;-62
2021/08/02 05:14:48;;;;;;;19.10;16.70;;;;;;;17.43;81.92;99509.64;91620;1242;82297;-61
2021/08/02 05:16:55;;;;;;;20.70;18.30;;;;;;;17.44;81.77;99517.56;91620;1245;67509;-62
2021/08/02 05:19:03;;;;;;;20.60;18.40;;;;;;;17.47;81.66;99524.45;91627;1241;68535;-62
2021/08/02 05:21:11;;;;;;;24.30;20.00;;;;;;;17.48;81.71;99518.72;91606;1242;85323;-62
2021/08/02 05:23:18;;;;;;;24.40;20.90;;;;;;;17.49;81.72;99519.55;91603;1242;74683;-61
2021/08/02 05:25:26;;;;;;;23.10;20.60;;;;;;;17.56;81.65;99520.20;91628;1241;81602;-58
2021/08/02 05:27:33;;;;;;;23.70;21.10;;;;;;;17.60;81.62;99519.45;91617;1241;65408;-61
2021/08/02 05:29:44;;;;;;;26.20;21.80;;;;;;;17.63;81.46;99526.30;91631;1244;68696;-62
2021/08/02 05:31:52;;;;;;;23.50;20.90;;;;;;;17.64;81.50;99527.94;91604;1242;86542;-62
2021/08/02 05:33:59;;;;;;;24.50;21.20;;;;;;;17.67;81.37;99527.42;91615;1242;73793;-61
2021/08/02 05:36:07;;;;;;;28.00;21.20;;;;;;;17.68;81.45;99527.19;91620;1242;81846;-61
2021/08/02 05:38:15;;;;;;;25.00;22.40;;;;;;;17.62;81.41;99530.94;91597;1242;67201;-61
2021/08/02 05:40:23;;;;;;;25.90;22.10;;;;;;;17.59;81.43;99536.91;91655;1242;69088;-62
2021/08/02 05:42:30;;;;;;;23.60;21.10;;;;;;;17.57;81.33;99524.59;91614;1242;86195;-58
2021/08/02 05:44:38;;;;;;;23.70;21.20;;;;;;;17.57;81.49;99527.32;91626;1241;74767;-59
2021/08/02 05:46:46;;;;;;;22.30;20.10;;;;;;;17.57;81.39;99538.25;91673;1240;81391;-61
2021/08/02 05:48:53;;;;;;;24.90;22.10;;;;;;;17.62;81.44;99541.03;91622;1240;66021;-61
2021/08/02 05:51:01;;;;;;;23.80;21.30;;;;;;;17.60;81.49;99540.47;91640;1242;68183;-60
2021/08/02 05:53:11;;;;;;;21.50;19.40;;;;;;;17.62;81.38;99546.49;91630;1242;86846;-62
2021/08/02 05:55:19;;;;;;;21.80;19.50;;;;;;;17.66;81.14;99542.19;91511;1242;74141;-62
2021/08/02 05:57:27;;;;;;;21.50;19.30;;;;;;;17.67;81.36;99539.18;91622;1242;81200;-60
2021/08/02 05:59:36;;;;;;;21.40;18.50;;;;;;;17.74;81.24;99541.72;91616;1241;69275;-59
2021/08/02 06:01:44;;;;;;;21.00;18.90;;;;;;;17.75;81.13;99546.09;91652;1241;68943;-62
2021/08/02 06:03:52;;;;;;;19.70;17.80;;;;;;;17.74;81.19;99547.19;91606;1241;86423;-62
2021/08/02 06:06:00;;;;;;;22.00;19.50;;;;;;;17.70;81.29;99551.50;91666;1242;74758;-61
2021/08/02 06:08:08;;;;;;;20.80;18.80;;;;;;;17.81;81.22;99557.90;91539;1242;82771;-61
2021/08/02 06:10:16;;;;;;;19.70;17.80;;;;;;;17.85;81.01;99557.15;91666;1242;67364;-63
2021/08/02 06:12:23;;;;;;;19.30;17.20;;;;;;;17.87;81.08;99562.34;91625;1241;69448;-62
2021/08/02 06:14:31;;;;;;;18.90;17.00;;;;;;;17.85;81.07;99562.61;91636;1243;87032;-60
2021/08/02 06:16:39;;;;;;;20.20;18.30;;;;;;;17.88;81.17;99562.07;91636;1242;75073;-62
2021/08/02 06:18:50;;;;;;;19.40;17.60;;;;;;;17.93;81.30;99564.88;91632;1242;81993;-62
2021/08/02 06:20:57;;;;;;;18.10;16.10;;;;;;;18.01;81.25;99566.32;91509;1242;67900;-63
2021/08/02 06:23:05;;;;;;;17.30;15.60;;;;;;;18.08;81.23;99567.75;91628;1241;68241;-61
2021/08/02 06:25:13;;;;;;;16.30;14.60;;;;;;;18.12;81.28;99571.64;91630;1241;86373;-62
2021/08/02 06:27:20;;;;;;;16.40;14.80;;;;;;;18.21;80.98;99567.33;91645;1241;75440;-61
2021/08/02 06:29:28;;;;;;;16.40;14.90;;;;;;;18.27;80.96;99576.41;91635;1242;82489;-61
2021/08/02 06:31:36;;;;;;;16.80;15.20;;;;;;;18.23;81.04;99570.66;91636;1240;66145;-61
2021/08/02 06:33:43;;;;;;;17.50;15.80;;;;;;;18.27;80.92;99582.70;91654;1242;68378;-58
2021/08/02 06:35:51;;;;;;;16.40;14.80;;;;;;;18.29;80.93;99586.00;91633;1242;86654;-58
2021/08/02 06:37:58;;;;;;;15.60;14.10;;;;;;;18.41;80.85;99579.53;91637;1240;75418;-61
2021/08/02 06:40:11;;;;;;;16.50;14.80;;;;;;;18.45;80.63;99583.41;91633;1241;81757;-63
2021/08/02 06:42:19;;;;;;;17.10;15.50;;;;;;;18.44;80.76;99587.22;91652;1242;65807;-62
2021/08/02 06:44:26;;;;;;;16.10;14.60;;;;;;;18.42;80.51;99579.30;91636;1242;67797;-62
2021/08/02 06:46:34;;;;;;;17.40;15.70;;;;;;;18.46;80.56;99590.55;91510;1242;86136;-61
2021/08/02 06:48:45;;;;;;;17.90;14.70;;;;;;;18.46;80.68;99590.55;91633;1241;74878;-62
2021/08/02 06:50:52;;;;;;;18.00;15.20;;;;;;;18.44;80.51;99588.05;91663;1241;79977;-61
2021/08/02 06:53:00;;;;;;;16.10;14.60;;;;;;;18.52;80.44;99597.72;91600;1242;68167;-58
2021/08/02 06:55:10;;;;;;;17.00;15.40;;;;;;;18.55;80.59;99594.47;91653;1242;69536;-58
2021/08/02 06:57:19;;;;;;;16.50;15.00;;;;;;;18.54;80.45;99590.10;91659;1241;86986;-60
2021/08/02 06:59:26;;;;;;;18.30;15.80;;;;;;;18.60;80.48;99592.59;91635;1240;75931;-59
2021/08/02 07:01:37;;;;;;;17.00;14.60;;;;;;;18.67;80.59;99597.86;91506;1242;81696;-59
2021/08/02 07:03:44;;;;;;;15.30;13.80;;;;;;;18.76;80.54;99601.77;91559;1242;67099;-62
2021/08/02 07:05:52;;;;;;;15.60;14.00;;;;;;;18.90;80.33;99600.22;91645;1242;69303;-62
2021/08/02 07:07:59;;;;;;;15.80;14.10;;;;;;;19.00;80.45;99603.05;91548;1242;86745;-62
2021/08/02 07:10:13;;;;;;;16.50;14.90;;;;;;;19.12;80.35;99611.86;91506;1242;74716;-61
2021/08/02 07:12:19;;;;;;;;;;;;;;;19.15;80.29;99611.34;91682;1242;80520;-60
2021/08/02 07:14:30;;;;;;;14.90;13.50;;;;;;;19.17;80.10;99611.89;91648;1242;67984;-61
2021/08/02 07:16:37;;;;;;;13.60;12.30;;;;;;;19.26;79.82;99615.80;91649;1242;68136;-59
2021/08/02 07:18:45;;;;;;;13.80;12.40;;;;;;;19.37;79.91;99620.23;91634;1242;86542;-60
2021/08/02 07:20:52;;;;;;;13.90;12.50;;;;;;;19.42;79.75;99622.20;91664;1241;73415;-61
2021/08/02 07:23:03;;;;;;;12.40;11.20;;;;;;;19.42;79.32;99627.68;91631;1242;80686;-63
2021/08/02 07:25:13;;;;;;;12.70;10.70;;;;;;;19.31;79.32;99618.55;91641;1241;66575;-63
2021/08/02 07:27:21;;;;;;;12.00;10.80;;;;;;;19.23;78.98;99621.80;91659;1241;67877;-62
2021/08/02 07:29:28;;;;;;;11.20;10.10;;;;;;;19.21;78.85;99626.72;91637;1242;87259;-61
2021/08/02 07:31:36;;;;;;;11.10;10.00;;;;;;;19.24;79.26;99626.19;91653;1242;73748;-61
2021/08/02 07:33:43;;;;;;;10.50;9.50;;;;;;;19.45;79.07;99631.83;91488;1242;81041;-60
2021/08/02 07:35:51;;;;;;;11.00;10.00;;;;;;;19.52;79.02;99626.92;91468;1242;67085;-60
2021/08/02 07:38:02;;;;;;;10.60;9.60;;;;;;;19.71;79.11;99628.11;91373;1246;68853;-61
2021/08/02 07:40:13;;;;;;;11.20;10.10;;;;;;;19.74;78.96;99630.32;91450;1246;86971;-60
2021/08/02 07:42:20;;;;;;;10.80;9.50;;;;;;;19.84;78.76;99635.83;91495;1242;75550;-61
2021/08/02 07:44:28;;;;;;;12.20;9.50;;;;;;;19.88;78.51;99640.53;91462;1242;81988;-60
2021/08/02 07:46:36;;;;;;;11.10;9.90;;;;;;;19.86;78.09;99636.41;91383;1243;65208;-63
2021/08/02 07:48:44;;;;;;;11.00;9.90;;;;;;;19.88;78.23;99639.70;91510;1242;70077;-64
2021/08/02 07:50:54;;;;;;;10.50;9.50;;;;;;;19.94;78.19;99644.12;91457;1242;86771;-60
2021/08/02 07:53:02;;;;;;;11.00;9.90;;;;;;;20.03;78.30;99648.80;91472;1242;75369;-62
2021/08/02 07:55:13;;;;;;;11.10;9.80;;;;;;;20.10;77.87;99644.98;91372;1243;81797;-61
2021/08/02 07:57:24;;;;;;;12.00;9.50;;;;;;;20.10;77.92;99651.30;91467;1242;66756;-61
2021/08/02 07:59:35;;;;;;;10.40;9.40;;;;;;;20.14;77.86;99652.39;91486;1242;69688;-62
2021/08/02 08:01:43;;;;;;;11.10;10.00;;;;;;;20.15;77.52;99647.73;91409;1243;86923;-62
2021/08/02 08:03:51;;;;;;;10.80;9.80;;;;;;;20.16;77.43;99655.68;91433;1243;75723;-62
2021/08/02 08:05:58;;;;;;;10.50;9.50;;;;;;;20.22;77.38;99659.27;91377;1243;82005;-62
2021/08/02 08:08:07;;;;;;;11.70;9.30;;;;;;;20.32;77.25;99660.17;91448;1242;68989;-60
2021/08/02 08:10:17;;;;;;;10.70;9.60;;;;;;;20.44;77.44;99659.90;91419;1243;69301;-60
2021/08/02 08:12:24;;;;;;;11.10;10.10;;;;;;;20.51;77.23;99660.48;91488;1240;87028;-60
2021/08/02 08:14:32;;;;;;;11.90;10.70;;;;;;;20.67;77.09;99662.14;91405;1243;74322;-60
2021/08/02 08:16:39;;;;;;;11.00;9.90;;;;;;;20.82;77.04;99664.88;91470;1242;80060;-63
2021/08/02 08:18:47;;;;;;;11.50;10.40;;;;;;;20.91;76.78;99667.91;91466;1242;67313;-61
2021/08/02 08:20:55;;;;;;;10.90;9.50;;;;;;;21.03;76.69;99665.72;91399;1243;69726;-60
2021/08/02 08:23:02;;;;;;;11.00;9.90;;;;;;;21.22;76.48;99664.09;91421;1242;86486;-64
2021/08/02 08:25:12;;;;;;;11.30;9.80;;;;;;;21.47;76.34;99665.97;91475;1242;75013;-66
2021/08/02 08:27:20;;;;;;;11.10;10.00;;;;;;;21.58;75.73;99668.42;91472;1242;80501;-60
2021/08/02 08:29:28;;;;;;;10.80;9.80;;;;;;;21.68;75.35;99678.55;91440;1242;67420;-59
2021/08/02 08:31:38;;;;;;;10.70;9.70;;;;;;;21.69;75.02;99675.54;91452;1242;67957;-61
2021/08/02 08:33:47;;;;;;;9.70;8.70;;;;;;;21.75;74.74;99674.39;91373;1243;84960;-63
2021/08/02 08:35:55;;;;;;;10.30;9.40;;;;;;;21.76;74.49;99673.30;91470;1242;75397;-64
2021/08/02 08:38:03;;;;;;;10.50;9.10;;;;;;;21.56;73.99;99681.59;91465;1242;81987;-62
2021/08/02 08:40:16;;;;;;;9.70;8.50;;;;;;;21.36;74.03;99683.58;91457;1242;66500;-64
2021/08/02 08:42:24;;;;;;;9.50;8.60;;;;;;;21.18;73.74;99683.04;91468;1243;68346;-59
2021/08/02 08:44:33;;;;;;;8.90;8.10;;;;;;;21.11;73.69;99685.25;91460;1242;87398;-60
2021/08/02 08:46:43;;;;;;;8.80;7.90;;;;;;;20.98;73.36;99687.70;91465;1242;75223;-61
2021/08/02 08:48:52;;;;;;;10.60;8.80;;;;;;;21.02;73.87;99686.86;91500;1242;80869;-62
2021/08/02 08:51:02;;;;;;;11.40;8.60;;;;;;;20.99;73.89;99689.33;91446;1242;66068;-63
2021/08/02 08:53:12;;;;;;;9.00;8.00;;;;;;;21.02;73.69;99692.36;91483;1242;71086;-61
2021/08/02 08:55:20;;;;;;;9.00;8.10;;;;;;;21.18;74.15;99695.14;91507;1242;85461;-60
2021/08/02 08:57:27;;;;;;;8.70;7.80;;;;;;;21.39;74.14;99686.60;91389;1243;74536;-66
2021/08/02 08:59:44;;;;;;;9.00;7.90;;;;;;;21.75;74.24;99690.89;91387;1243;81464;-64
2021/08/02 09:02:04;;;;;;;10.50;6.90;;;;;;;22.04;74.00;99688.36;91444;1242;68327;-64
2021/08/02 09:04:12;;;;;;;8.70;7.40;;;;;;;22.39;73.08;99683.80;91480;1242;68668;-60
2021/08/02 09:06:20;;;;;;;10.00;7.60;;;;;;;22.61;73.28;99682.27;91472;1242;86407;-60
2021/08/02 09:08:28;;;;;;;7.80;7.00;;;;;;;22.81;72.52;99687.67;91497;1242;75386;-63
2021/08/02 09:10:40;;;;;;;7.30;6.60;;;;;;;22.86;72.26;99690.38;91476;1242;81907;-62
2021/08/02 09:12:56;;;;;;;7.60;6.90;;;;;;;23.04;72.08;99691.64;91459;1242;65606;-61
2021/08/02 09:15:07;;;;;;;9.30;7.20;;;;;;;23.04;71.28;99693.56;91449;1242;69750;-61
2021/08/02 09:17:26;;;;;;;6.90;6.30;;;;;;;22.90;70.79;99690.64;91496;1242;86030;-62
2021/08/02 09:19:43;;;;;;;8.00;7.10;;;;;;;22.75;70.66;99691.56;91458;1242;75491;-61
2021/08/02 09:21:54;;;;;;;7.30;6.60;;;;;;;22.60;70.65;99702.66;91361;1243;81963;-61
2021/08/02 09:24:02;;;;;;;8.60;6.30;;;;;;;22.53;70.43;99704.06;91463;1242;67849;-59
2021/08/02 09:26:09;;;;;;;7.50;6.30;;;;;;;22.40;70.09;99715.70;91470;1242;68788;-58
2021/08/02 09:28:21;;;;;;;7.00;6.40;;;;;;;22.28;70.25;99713.28;91490;1242;87161;-62
2021/08/02 09:30:31;;;;;;;7.40;6.60;;;;;;;22.28;70.41;99716.86;91430;1243;73809;-61
2021/08/02 09:32:56;;;;;;;7.70;6.50;;;;;;;22.27;70.31;99717.16;91449;1242;81606;-62
2021/08/02 09:35:04;;;;;;;7.20;5.70;;;;;;;22.30;70.39;99717.39;91622;1241;67838;-60
2021/08/02 09:37:23;;;;;;;6.70;6.00;;;;;;;22.48;70.81;99713.19;91660;1241;67974;-58
2021/08/02 09:39:35;;;;;;;6.10;5.60;;;;;;;22.75;70.48;99710.84;91655;1242;86296;-60
2021/08/02 09:41:43;;;;;;;6.40;5.70;;;;;;;23.19;71.05;99712.71;91675;1242;74010;-63
2021/08/02 09:43:54;;;;;;;8.40;5.30;;;;;;;23.60;70.57;99715.94;91613;1242;81422;-59
2021/08/02 09:46:07;;;;;;;7.70;5.70;;;;;;;23.78;70.23;99716.05;91640;1241;66207;-58
2021/08/02 09:48:17;;;;;;;6.00;5.40;;;;;;;23.73;69.29;99718.03;91619;1241;68718;-63
2021/08/02 09:50:33;;;;;;;7.50;5.70;;;;;;;23.80;68.90;99724.84;91675;1242;85384;-62
2021/08/02 09:52:54;;;;;;;5.90;5.30;;;;;;;23.80;68.34;99735.88;91656;1241;76073;-59
2021/08/02 09:55:06;;;;;;;7.20;5.70;;;;;;;23.67;68.20;99736.57;91681;1242;81303;-59
2021/08/02 09:57:17;;;;;;;8.00;5.50;;;;;;;23.66;68.31;99734.91;91650;1242;65576;-62
2021/08/02 09:59:26;;;;;;;6.30;4.80;;;;;;;23.80;68.32;99738.63;91663;1241;69286;-61
2021/08/02 10:01:37;;;;;;;5.80;5.10;;;;;;;23.81;68.22;99748.56;91549;1242;86606;-63
2021/08/02 10:03:45;;;;;;;5.60;4.80;;;;;;;23.92;68.18;99741.83;91610;1241;74687;-69
2021/08/02 10:05:53;;;;;;;5.80;5.00;;;;;;;23.95;67.43;99748.69;91667;1240;81790;-71
2021/08/02 10:08:03;;;;;;;6.00;4.60;;;;;;;23.88;67.01;99750.95;91612;1241;65946;-62
2021/08/02 10:10:16;;;;;;;5.00;4.50;;;;;;;23.89;66.93;99747.09;91639;1242;68714;-64